sensor_id;sensor_type;location;lat;lon;timestamp;P1;durP1;ratioP1;P2;durP2;ratioP2
27223;SDS011;14965;50.660;13.226;2022-07-29T00:02:15;7.20;;;4.00;;
27223;SDS011;14965;50.660;13.226;2022-07-29T00:04:40;6.47;;;3.80;;
27223;SDS011;14965;50.660;13.226;2022-07-29T00:07:06;6.43;;;3.70;;
27223;SDS011;14965;50.660;13.226;2022-07-29T00:09:32;7.15;;;3.95;;
27223;SDS011;14965;50.660;13.226;2022-07-29T00:11:59;6.03;;;3.83;;
27223;SDS011;14965;50.660;13.226;2022-07-29T00:14:28;7.05;;;3.50;;
27223;SDS011;14965;50.660;13.226;2022-07-29T00:16:54;8.65;;;3.85;;
27223;SDS011;14965;50.660;13.226;2022-07-29T00:19:19;7.53;;;3.95;;
27223;SDS011;14965;50.660;13.226;2022-07-29T00:21:45;8.40;;;3.97;;
27223;SDS011;14965;50.660;13.226;2022-07-29T00:24:11;7.32;;;3.55;;
27223;SDS011;14965;50.660;13.226;2022-07-29T00:26:37;7.22;;;3.83;;
27223;SDS011;14965;50.660;13.226;2022-07-29T00:29:04;10.02;;;3.72;;
27223;SDS011;14965;50.660;13.226;2022-07-29T00:31:31;7.85;;;3.85;;
27223;SDS011;14965;50.660;13.226;2022-07-29T00:33:57;6.57;;;3.88;;
27223;SDS011;14965;50.660;13.226;2022-07-29T00:36:25;8.35;;;4.00;;
27223;SDS011;14965;50.660;13.226;2022-07-29T00:38:51;6.05;;;3.40;;
27223;SDS011;14965;50.660;13.226;2022-07-29T00:41:17;9.68;;;3.75;;
27223;SDS011;14965;50.660;13.226;2022-07-29T00:43:43;12.52;;;4.10;;
27223;SDS011;14965;50.660;13.226;2022-07-29T00:46:09;7.85;;;3.42;;
27223;SDS011;14965;50.660;13.226;2022-07-29T00:48:37;8.10;;;4.00;;
27223;SDS011;14965;50.660;13.226;2022-07-29T00:51:04;7.75;;;4.13;;
27223;SDS011;14965;50.660;13.226;2022-07-29T00:53:31;7.55;;;4.05;;
27223;SDS011;14965;50.660;13.226;2022-07-29T00:55:57;7.75;;;4.20;;
27223;SDS011;14965;50.660;13.226;2022-07-29T00:58:24;10.35;;;4.10;;
27223;SDS011;14965;50.660;13.226;2022-07-29T01:00:51;6.07;;;4.00;;
27223;SDS011;14965;50.660;13.226;2022-07-29T01:03:18;7.50;;;3.88;;
27223;SDS011;14965;50.660;13.226;2022-07-29T01:05:45;6.57;;;3.72;;
27223;SDS011;14965;50.660;13.226;2022-07-29T01:08:12;8.75;;;4.18;;
27223;SDS011;14965;50.660;13.226;2022-07-29T01:10:41;6.20;;;3.55;;
27223;SDS011;14965;50.660;13.226;2022-07-29T01:13:09;6.25;;;3.60;;
27223;SDS011;14965;50.660;13.226;2022-07-29T01:15:38;5.85;;;3.50;;
27223;SDS011;14965;50.660;13.226;2022-07-29T01:18:11;8.20;;;3.90;;
27223;SDS011;14965;50.660;13.226;2022-07-29T01:20:57;10.20;;;3.97;;
27223;SDS011;14965;50.660;13.226;2022-07-29T01:23:58;6.95;;;3.40;;
27223;SDS011;14965;50.660;13.226;2022-07-29T01:26:41;10.45;;;4.07;;
27223;SDS011;14965;50.660;13.226;2022-07-29T01:29:14;7.70;;;3.85;;
27223;SDS011;14965;50.660;13.226;2022-07-29T01:31:51;9.55;;;3.70;;
27223;SDS011;14965;50.660;13.226;2022-07-29T01:34:25;6.93;;;3.55;;
27223;SDS011;14965;50.660;13.226;2022-07-29T01:37:06;6.85;;;3.80;;
27223;SDS011;14965;50.660;13.226;2022-07-29T01:39:45;6.07;;;3.30;;
27223;SDS011;14965;50.660;13.226;2022-07-29T01:42:14;6.57;;;3.38;;
27223;SDS011;14965;50.660;13.226;2022-07-29T01:44:55;7.13;;;3.50;;
27223;SDS011;14965;50.660;13.226;2022-07-29T01:47:28;11.40;;;3.25;;
27223;SDS011;14965;50.660;13.226;2022-07-29T01:50:03;7.97;;;3.92;;
27223;SDS011;14965;50.660;13.226;2022-07-29T01:52:38;10.25;;;3.75;;
27223;SDS011;14965;50.660;13.226;2022-07-29T01:55:15;10.13;;;3.88;;
27223;SDS011;14965;50.660;13.226;2022-07-29T01:57:45;11.93;;;3.65;;
27223;SDS011;14965;50.660;13.226;2022-07-29T02:00:15;8.10;;;3.40;;
27223;SDS011;14965;50.660;13.226;2022-07-29T02:02:43;5.70;;;3.40;;
27223;SDS011;14965;50.660;13.226;2022-07-29T02:05:12;8.57;;;3.33;;
27223;SDS011;14965;50.660;13.226;2022-07-29T02:07:42;6.32;;;3.33;;
27223;SDS011;14965;50.660;13.226;2022-07-29T02:10:11;10.10;;;3.67;;
27223;SDS011;14965;50.660;13.226;2022-07-29T02:12:40;5.80;;;3.28;;
27223;SDS011;14965;50.660;13.226;2022-07-29T02:15:10;8.43;;;3.35;;
27223;SDS011;14965;50.660;13.226;2022-07-29T02:17:41;6.03;;;3.37;;
27223;SDS011;14965;50.660;13.226;2022-07-29T02:20:14;7.38;;;3.30;;
27223;SDS011;14965;50.660;13.226;2022-07-29T02:22:41;6.05;;;3.13;;
27223;SDS011;14965;50.660;13.226;2022-07-29T02:25:11;9.15;;;3.40;;
27223;SDS011;14965;50.660;13.226;2022-07-29T02:27:40;6.93;;;3.25;;
27223;SDS011;14965;50.660;13.226;2022-07-29T02:30:08;8.07;;;3.27;;
27223;SDS011;14965;50.660;13.226;2022-07-29T02:32:37;6.50;;;3.28;;
27223;SDS011;14965;50.660;13.226;2022-07-29T02:35:08;8.13;;;3.55;;
27223;SDS011;14965;50.660;13.226;2022-07-29T02:37:37;7.68;;;3.65;;
27223;SDS011;14965;50.660;13.226;2022-07-29T02:40:05;4.78;;;3.35;;
27223;SDS011;14965;50.660;13.226;2022-07-29T02:42:36;4.88;;;3.33;;
27223;SDS011;14965;50.660;13.226;2022-07-29T02:45:06;6.97;;;3.22;;
27223;SDS011;14965;50.660;13.226;2022-07-29T02:47:34;9.13;;;3.22;;
27223;SDS011;14965;50.660;13.226;2022-07-29T02:50:09;8.98;;;3.80;;
27223;SDS011;14965;50.660;13.226;2022-07-29T02:52:41;6.40;;;3.05;;
27223;SDS011;14965;50.660;13.226;2022-07-29T02:55:17;8.88;;;3.55;;
27223;SDS011;14965;50.660;13.226;2022-07-29T02:58:08;8.32;;;3.67;;
27223;SDS011;14965;50.660;13.226;2022-07-29T03:00:44;6.97;;;3.33;;
27223;SDS011;14965;50.660;13.226;2022-07-29T03:03:15;6.28;;;3.25;;
27223;SDS011;14965;50.660;13.226;2022-07-29T03:05:44;19.27;;;3.40;;
27223;SDS011;14965;50.660;13.226;2022-07-29T03:08:11;7.90;;;3.70;;
27223;SDS011;14965;50.660;13.226;2022-07-29T03:10:40;8.93;;;3.33;;
27223;SDS011;14965;50.660;13.226;2022-07-29T03:13:09;8.55;;;3.40;;
27223;SDS011;14965;50.660;13.226;2022-07-29T03:15:36;8.25;;;3.20;;
27223;SDS011;14965;50.660;13.226;2022-07-29T03:18:03;8.15;;;3.60;;
27223;SDS011;14965;50.660;13.226;2022-07-29T03:20:32;5.60;;;3.20;;
27223;SDS011;14965;50.660;13.226;2022-07-29T03:22:59;6.30;;;3.20;;
27223;SDS011;14965;50.660;13.226;2022-07-29T03:25:25;9.38;;;3.70;;
27223;SDS011;14965;50.660;13.226;2022-07-29T03:27:51;8.38;;;3.72;;
27223;SDS011;14965;50.660;13.226;2022-07-29T03:30:17;10.38;;;3.20;;
27223;SDS011;14965;50.660;13.226;2022-07-29T03:32:42;4.68;;;3.10;;
27223;SDS011;14965;50.660;13.226;2022-07-29T03:35:09;7.30;;;3.65;;
27223;SDS011;14965;50.660;13.226;2022-07-29T03:37:36;7.78;;;3.33;;
27223;SDS011;14965;50.660;13.226;2022-07-29T03:40:03;8.40;;;3.30;;
27223;SDS011;14965;50.660;13.226;2022-07-29T03:42:35;9.60;;;3.53;;
27223;SDS011;14965;50.660;13.226;2022-07-29T03:45:09;7.18;;;3.58;;
27223;SDS011;14965;50.660;13.226;2022-07-29T03:47:42;6.15;;;3.45;;
27223;SDS011;14965;50.660;13.226;2022-07-29T03:50:15;6.95;;;3.55;;
27223;SDS011;14965;50.660;13.226;2022-07-29T03:52:43;7.55;;;3.50;;
27223;SDS011;14965;50.660;13.226;2022-07-29T03:55:10;10.07;;;3.60;;
27223;SDS011;14965;50.660;13.226;2022-07-29T03:57:36;9.10;;;3.75;;
27223;SDS011;14965;50.660;13.226;2022-07-29T04:00:05;7.63;;;3.70;;
27223;SDS011;14965;50.660;13.226;2022-07-29T04:02:33;13.77;;;3.70;;
27223;SDS011;14965;50.660;13.226;2022-07-29T04:05:00;8.75;;;3.50;;
27223;SDS011;14965;50.660;13.226;2022-07-29T04:07:26;7.28;;;3.42;;
27223;SDS011;14965;50.660;13.226;2022-07-29T04:09:54;7.00;;;4.03;;
27223;SDS011;14965;50.660;13.226;2022-07-29T04:12:19;13.55;;;3.50;;
27223;SDS011;14965;50.660;13.226;2022-07-29T04:14:45;9.73;;;3.80;;
27223;SDS011;14965;50.660;13.226;2022-07-29T04:17:11;5.97;;;3.88;;
27223;SDS011;14965;50.660;13.226;2022-07-29T04:19:37;11.95;;;4.10;;
27223;SDS011;14965;50.660;13.226;2022-07-29T04:22:04;10.68;;;4.15;;
27223;SDS011;14965;50.660;13.226;2022-07-29T04:24:30;7.65;;;3.60;;
27223;SDS011;14965;50.660;13.226;2022-07-29T04:26:57;7.53;;;4.25;;
27223;SDS011;14965;50.660;13.226;2022-07-29T04:29:23;9.10;;;4.00;;
27223;SDS011;14965;50.660;13.226;2022-07-29T04:31:49;8.52;;;3.75;;
27223;SDS011;14965;50.660;13.226;2022-07-29T04:34:15;8.15;;;4.05;;
27223;SDS011;14965;50.660;13.226;2022-07-29T04:36:40;9.32;;;3.90;;
27223;SDS011;14965;50.660;13.226;2022-07-29T04:39:06;8.00;;;4.00;;
27223;SDS011;14965;50.660;13.226;2022-07-29T04:41:32;11.25;;;3.67;;
27223;SDS011;14965;50.660;13.226;2022-07-29T04:43:59;7.97;;;3.70;;
27223;SDS011;14965;50.660;13.226;2022-07-29T04:46:25;7.70;;;3.47;;
27223;SDS011;14965;50.660;13.226;2022-07-29T04:48:51;6.80;;;3.50;;
27223;SDS011;14965;50.660;13.226;2022-07-29T04:51:17;6.53;;;3.55;;
27223;SDS011;14965;50.660;13.226;2022-07-29T04:53:43;9.48;;;3.58;;
27223;SDS011;14965;50.660;13.226;2022-07-29T04:56:09;8.63;;;3.75;;
27223;SDS011;14965;50.660;13.226;2022-07-29T04:58:35;8.82;;;3.40;;
27223;SDS011;14965;50.660;13.226;2022-07-29T05:01:02;11.07;;;3.80;;
27223;SDS011;14965;50.660;13.226;2022-07-29T05:03:28;6.47;;;3.20;;
27223;SDS011;14965;50.660;13.226;2022-07-29T05:05:54;8.15;;;3.25;;
27223;SDS011;14965;50.660;13.226;2022-07-29T05:08:20;7.85;;;3.35;;
27223;SDS011;14965;50.660;13.226;2022-07-29T05:10:46;8.90;;;3.85;;
27223;SDS011;14965;50.660;13.226;2022-07-29T05:13:12;7.45;;;3.80;;
27223;SDS011;14965;50.660;13.226;2022-07-29T05:15:37;10.20;;;4.10;;
27223;SDS011;14965;50.660;13.226;2022-07-29T05:18:05;7.63;;;3.60;;
27223;SDS011;14965;50.660;13.226;2022-07-29T05:20:31;8.35;;;4.10;;
27223;SDS011;14965;50.660;13.226;2022-07-29T05:22:58;9.05;;;4.10;;
27223;SDS011;14965;50.660;13.226;2022-07-29T05:25:25;10.00;;;4.10;;
27223;SDS011;14965;50.660;13.226;2022-07-29T05:27:53;7.32;;;3.67;;
27223;SDS011;14965;50.660;13.226;2022-07-29T05:30:20;6.07;;;3.70;;
27223;SDS011;14965;50.660;13.226;2022-07-29T05:32:46;6.85;;;4.00;;
27223;SDS011;14965;50.660;13.226;2022-07-29T05:35:14;10.05;;;3.80;;
27223;SDS011;14965;50.660;13.226;2022-07-29T05:37:40;6.72;;;3.80;;
27223;SDS011;14965;50.660;13.226;2022-07-29T05:40:08;11.80;;;3.72;;
27223;SDS011;14965;50.660;13.226;2022-07-29T05:42:35;7.47;;;3.90;;
27223;SDS011;14965;50.660;13.226;2022-07-29T05:45:01;9.55;;;3.95;;
27223;SDS011;14965;50.660;13.226;2022-07-29T05:47:28;15.18;;;4.00;;
27223;SDS011;14965;50.660;13.226;2022-07-29T05:49:54;12.23;;;4.32;;
27223;SDS011;14965;50.660;13.226;2022-07-29T05:52:21;9.10;;;4.00;;
27223;SDS011;14965;50.660;13.226;2022-07-29T05:54:47;13.27;;;4.00;;
27223;SDS011;14965;50.660;13.226;2022-07-29T05:57:17;8.55;;;3.63;;
27223;SDS011;14965;50.660;13.226;2022-07-29T05:59:44;8.07;;;3.60;;
27223;SDS011;14965;50.660;13.226;2022-07-29T06:02:10;6.80;;;3.50;;
27223;SDS011;14965;50.660;13.226;2022-07-29T06:04:36;7.40;;;3.67;;
27223;SDS011;14965;50.660;13.226;2022-07-29T06:07:02;7.38;;;3.50;;
27223;SDS011;14965;50.660;13.226;2022-07-29T06:09:29;8.05;;;3.83;;
27223;SDS011;14965;50.660;13.226;2022-07-29T06:11:55;6.57;;;3.28;;
27223;SDS011;14965;50.660;13.226;2022-07-29T06:14:21;9.18;;;3.83;;
27223;SDS011;14965;50.660;13.226;2022-07-29T06:16:50;7.55;;;3.50;;
27223;SDS011;14965;50.660;13.226;2022-07-29T06:19:16;6.53;;;3.55;;
27223;SDS011;14965;50.660;13.226;2022-07-29T06:21:42;9.70;;;3.50;;
27223;SDS011;14965;50.660;13.226;2022-07-29T06:24:09;8.40;;;3.45;;
27223;SDS011;14965;50.660;13.226;2022-07-29T06:26:37;7.68;;;3.40;;
27223;SDS011;14965;50.660;13.226;2022-07-29T06:29:03;8.57;;;4.07;;
27223;SDS011;14965;50.660;13.226;2022-07-29T06:31:29;7.65;;;3.40;;
27223;SDS011;14965;50.660;13.226;2022-07-29T06:33:55;9.90;;;3.80;;
27223;SDS011;14965;50.660;13.226;2022-07-29T06:36:20;6.57;;;3.63;;
27223;SDS011;14965;50.660;13.226;2022-07-29T06:38:46;11.30;;;3.85;;
27223;SDS011;14965;50.660;13.226;2022-07-29T06:41:12;8.88;;;3.90;;
27223;SDS011;14965;50.660;13.226;2022-07-29T06:43:39;7.28;;;3.80;;
27223;SDS011;14965;50.660;13.226;2022-07-29T06:46:08;8.40;;;4.53;;
27223;SDS011;14965;50.660;13.226;2022-07-29T06:48:37;5.45;;;4.38;;
27223;SDS011;14965;50.660;13.226;2022-07-29T06:51:04;5.13;;;3.67;;
27223;SDS011;14965;50.660;13.226;2022-07-29T06:53:31;6.70;;;3.45;;
27223;SDS011;14965;50.660;13.226;2022-07-29T06:55:58;8.23;;;3.63;;
27223;SDS011;14965;50.660;13.226;2022-07-29T06:58:25;5.88;;;3.90;;
27223;SDS011;14965;50.660;13.226;2022-07-29T07:00:53;6.28;;;3.80;;
27223;SDS011;14965;50.660;13.226;2022-07-29T07:03:20;7.97;;;3.90;;
27223;SDS011;14965;50.660;13.226;2022-07-29T07:05:46;6.43;;;3.60;;
27223;SDS011;14965;50.660;13.226;2022-07-29T07:08:12;4.90;;;3.55;;
27223;SDS011;14965;50.660;13.226;2022-07-29T07:10:38;10.02;;;3.83;;
27223;SDS011;14965;50.660;13.226;2022-07-29T07:13:05;8.07;;;3.83;;
27223;SDS011;14965;50.660;13.226;2022-07-29T07:15:31;9.57;;;3.90;;
27223;SDS011;14965;50.660;13.226;2022-07-29T07:18:00;8.45;;;3.90;;
27223;SDS011;14965;50.660;13.226;2022-07-29T07:20:26;12.30;;;4.07;;
27223;SDS011;14965;50.660;13.226;2022-07-29T07:22:52;9.15;;;3.60;;
27223;SDS011;14965;50.660;13.226;2022-07-29T07:25:18;8.95;;;3.40;;
27223;SDS011;14965;50.660;13.226;2022-07-29T07:27:44;6.45;;;3.97;;
27223;SDS011;14965;50.660;13.226;2022-07-29T07:30:10;10.20;;;3.72;;
27223;SDS011;14965;50.660;13.226;2022-07-29T07:32:37;8.10;;;3.60;;
27223;SDS011;14965;50.660;13.226;2022-07-29T07:35:05;8.45;;;3.50;;
27223;SDS011;14965;50.660;13.226;2022-07-29T07:37:33;7.60;;;3.60;;
27223;SDS011;14965;50.660;13.226;2022-07-29T07:40:00;5.78;;;3.80;;
27223;SDS011;14965;50.660;13.226;2022-07-29T07:42:26;8.20;;;3.67;;
27223;SDS011;14965;50.660;13.226;2022-07-29T07:44:52;8.13;;;3.60;;
27223;SDS011;14965;50.660;13.226;2022-07-29T07:47:18;6.65;;;3.75;;
27223;SDS011;14965;50.660;13.226;2022-07-29T07:49:44;14.73;;;3.65;;
27223;SDS011;14965;50.660;13.226;2022-07-29T07:52:12;5.93;;;3.50;;
27223;SDS011;14965;50.660;13.226;2022-07-29T07:54:38;8.18;;;3.50;;
27223;SDS011;14965;50.660;13.226;2022-07-29T07:57:04;7.57;;;3.78;;
27223;SDS011;14965;50.660;13.226;2022-07-29T07:59:30;3.92;;;3.20;;
27223;SDS011;14965;50.660;13.226;2022-07-29T08:01:56;7.18;;;3.40;;
27223;SDS011;14965;50.660;13.226;2022-07-29T08:04:22;9.20;;;4.00;;
27223;SDS011;14965;50.660;13.226;2022-07-29T08:06:48;9.35;;;3.95;;
27223;SDS011;14965;50.660;13.226;2022-07-29T08:09:15;10.20;;;3.50;;
27223;SDS011;14965;50.660;13.226;2022-07-29T08:11:41;10.50;;;3.70;;
27223;SDS011;14965;50.660;13.226;2022-07-29T08:14:07;5.88;;;3.35;;
27223;SDS011;14965;50.660;13.226;2022-07-29T08:16:33;8.00;;;3.55;;
27223;SDS011;14965;50.660;13.226;2022-07-29T08:18:59;5.30;;;3.30;;
27223;SDS011;14965;50.660;13.226;2022-07-29T08:21:24;8.90;;;3.60;;
27223;SDS011;14965;50.660;13.226;2022-07-29T08:23:50;6.20;;;3.70;;
27223;SDS011;14965;50.660;13.226;2022-07-29T08:26:18;6.65;;;3.40;;
27223;SDS011;14965;50.660;13.226;2022-07-29T08:28:45;9.55;;;3.50;;
27223;SDS011;14965;50.660;13.226;2022-07-29T08:31:11;9.00;;;3.63;;
27223;SDS011;14965;50.660;13.226;2022-07-29T08:33:38;8.43;;;3.90;;
27223;SDS011;14965;50.660;13.226;2022-07-29T08:36:05;8.98;;;3.65;;
27223;SDS011;14965;50.660;13.226;2022-07-29T08:38:31;9.75;;;3.55;;
27223;SDS011;14965;50.660;13.226;2022-07-29T08:40:57;7.18;;;3.63;;
27223;SDS011;14965;50.660;13.226;2022-07-29T08:43:26;7.85;;;3.40;;
27223;SDS011;14965;50.660;13.226;2022-07-29T08:45:52;4.93;;;2.75;;
27223;SDS011;14965;50.660;13.226;2022-07-29T08:48:19;7.82;;;3.47;;
27223;SDS011;14965;50.660;13.226;2022-07-29T08:50:48;8.55;;;3.40;;
27223;SDS011;14965;50.660;13.226;2022-07-29T08:53:19;5.22;;;3.38;;
27223;SDS011;14965;50.660;13.226;2022-07-29T08:55:47;9.88;;;3.97;;
27223;SDS011;14965;50.660;13.226;2022-07-29T08:58:15;7.38;;;3.80;;
27223;SDS011;14965;50.660;13.226;2022-07-29T09:00:45;15.00;;;3.90;;
27223;SDS011;14965;50.660;13.226;2022-07-29T09:03:18;8.32;;;3.40;;
27223;SDS011;14965;50.660;13.226;2022-07-29T09:05:47;7.68;;;3.85;;
27223;SDS011;14965;50.660;13.226;2022-07-29T09:08:14;11.00;;;3.85;;
27223;SDS011;14965;50.660;13.226;2022-07-29T09:10:41;8.18;;;3.95;;
27223;SDS011;14965;50.660;13.226;2022-07-29T09:13:07;8.20;;;4.22;;
27223;SDS011;14965;50.660;13.226;2022-07-29T09:15:33;8.07;;;3.70;;
27223;SDS011;14965;50.660;13.226;2022-07-29T09:18:01;6.68;;;3.78;;
27223;SDS011;14965;50.660;13.226;2022-07-29T09:20:27;11.55;;;3.97;;
27223;SDS011;14965;50.660;13.226;2022-07-29T09:22:54;6.00;;;3.30;;
27223;SDS011;14965;50.660;13.226;2022-07-29T09:25:32;5.85;;;3.70;;
27223;SDS011;14965;50.660;13.226;2022-07-29T09:28:05;6.45;;;3.22;;
27223;SDS011;14965;50.660;13.226;2022-07-29T09:30:32;6.40;;;3.78;;
27223;SDS011;14965;50.660;13.226;2022-07-29T09:32:59;12.52;;;3.58;;
27223;SDS011;14965;50.660;13.226;2022-07-29T09:35:29;8.18;;;3.40;;
27223;SDS011;14965;50.660;13.226;2022-07-29T09:37:55;4.97;;;3.17;;
27223;SDS011;14965;50.660;13.226;2022-07-29T09:40:22;10.73;;;3.50;;
27223;SDS011;14965;50.660;13.226;2022-07-29T09:42:51;4.78;;;3.20;;
27223;SDS011;14965;50.660;13.226;2022-07-29T09:45:26;9.80;;;3.60;;
27223;SDS011;14965;50.660;13.226;2022-07-29T09:47:54;6.43;;;3.28;;
27223;SDS011;14965;50.660;13.226;2022-07-29T09:50:22;5.05;;;3.30;;
27223;SDS011;14965;50.660;13.226;2022-07-29T09:52:59;7.25;;;3.38;;
27223;SDS011;14965;50.660;13.226;2022-07-29T09:55:25;9.60;;;3.13;;
27223;SDS011;14965;50.660;13.226;2022-07-29T09:57:51;9.18;;;3.13;;
27223;SDS011;14965;50.660;13.226;2022-07-29T10:00:18;9.23;;;3.47;;
27223;SDS011;14965;50.660;13.226;2022-07-29T10:02:46;8.95;;;3.13;;
27223;SDS011;14965;50.660;13.226;2022-07-29T10:05:19;7.10;;;3.22;;
27223;SDS011;14965;50.660;13.226;2022-07-29T10:07:51;6.85;;;2.90;;
27223;SDS011;14965;50.660;13.226;2022-07-29T10:10:20;8.30;;;3.22;;
27223;SDS011;14965;50.660;13.226;2022-07-29T10:12:48;5.25;;;3.10;;
27223;SDS011;14965;50.660;13.226;2022-07-29T10:15:17;6.75;;;3.30;;
27223;SDS011;14965;50.660;13.226;2022-07-29T10:17:43;7.63;;;3.25;;
27223;SDS011;14965;50.660;13.226;2022-07-29T10:20:10;7.38;;;3.63;;
27223;SDS011;14965;50.660;13.226;2022-07-29T10:22:37;8.15;;;3.45;;
27223;SDS011;14965;50.660;13.226;2022-07-29T10:25:04;5.82;;;3.20;;
27223;SDS011;14965;50.660;13.226;2022-07-29T10:27:31;8.30;;;3.53;;
27223;SDS011;14965;50.660;13.226;2022-07-29T10:29:57;7.97;;;3.40;;
27223;SDS011;14965;50.660;13.226;2022-07-29T10:32:30;7.90;;;3.28;;
27223;SDS011;14965;50.660;13.226;2022-07-29T10:35:13;7.95;;;3.50;;
27223;SDS011;14965;50.660;13.226;2022-07-29T10:38:03;5.05;;;3.15;;
27223;SDS011;14965;50.660;13.226;2022-07-29T10:41:05;5.03;;;3.00;;
27223;SDS011;14965;50.660;13.226;2022-07-29T10:43:44;8.80;;;3.47;;
27223;SDS011;14965;50.660;13.226;2022-07-29T10:46:13;8.00;;;3.30;;
27223;SDS011;14965;50.660;13.226;2022-07-29T10:51:50;5.35;;;2.85;;
27223;SDS011;14965;50.660;13.226;2022-07-29T10:54:20;6.05;;;3.33;;
27223;SDS011;14965;50.660;13.226;2022-07-29T10:57:23;6.65;;;3.13;;
27223;SDS011;14965;50.660;13.226;2022-07-29T11:02:55;8.05;;;3.13;;
27223;SDS011;14965;50.660;13.226;2022-07-29T11:05:21;8.05;;;3.10;;
27223;SDS011;14965;50.660;13.226;2022-07-29T11:10:52;8.70;;;2.92;;
27223;SDS011;14965;50.660;13.226;2022-07-29T11:13:55;7.80;;;2.78;;
27223;SDS011;14965;50.660;13.226;2022-07-29T11:16:21;5.85;;;3.17;;
27223;SDS011;14965;50.660;13.226;2022-07-29T11:24:12;8.77;;;2.95;;
27223;SDS011;14965;50.660;13.226;2022-07-29T11:26:40;9.65;;;3.10;;
27223;SDS011;14965;50.660;13.226;2022-07-29T11:29:14;8.35;;;3.13;;
27223;SDS011;14965;50.660;13.226;2022-07-29T11:31:45;6.07;;;3.10;;
27223;SDS011;14965;50.660;13.226;2022-07-29T11:34:19;4.63;;;2.60;;
27223;SDS011;14965;50.660;13.226;2022-07-29T11:39:44;5.82;;;2.70;;
27223;SDS011;14965;50.660;13.226;2022-07-29T11:45:20;8.50;;;2.85;;
27223;SDS011;14965;50.660;13.226;2022-07-29T11:47:52;8.38;;;3.00;;
27223;SDS011;14965;50.660;13.226;2022-07-29T11:50:32;6.75;;;2.97;;
27223;SDS011;14965;50.660;13.226;2022-07-29T11:53:00;4.88;;;2.53;;
27223;SDS011;14965;50.660;13.226;2022-07-29T11:55:34;7.93;;;2.60;;
27223;SDS011;14965;50.660;13.226;2022-07-29T11:58:04;7.22;;;2.67;;
27223;SDS011;14965;50.660;13.226;2022-07-29T12:00:31;8.05;;;2.70;;
27223;SDS011;14965;50.660;13.226;2022-07-29T12:03:00;5.90;;;3.10;;
27223;SDS011;14965;50.660;13.226;2022-07-29T12:05:33;5.03;;;2.85;;
27223;SDS011;14965;50.660;13.226;2022-07-29T12:08:09;6.75;;;3.25;;
27223;SDS011;14965;50.660;13.226;2022-07-29T12:13:08;11.07;;;3.15;;
27223;SDS011;14965;50.660;13.226;2022-07-29T12:15:36;7.50;;;2.90;;
27223;SDS011;14965;50.660;13.226;2022-07-29T12:18:12;7.93;;;2.95;;
27223;SDS011;14965;50.660;13.226;2022-07-29T12:20:40;7.35;;;2.90;;
27223;SDS011;14965;50.660;13.226;2022-07-29T12:23:06;4.90;;;2.60;;
27223;SDS011;14965;50.660;13.226;2022-07-29T12:25:35;5.50;;;2.70;;
27223;SDS011;14965;50.660;13.226;2022-07-29T12:28:02;4.95;;;2.65;;
27223;SDS011;14965;50.660;13.226;2022-07-29T12:30:35;7.07;;;3.00;;
27223;SDS011;14965;50.660;13.226;2022-07-29T12:33:13;6.03;;;3.35;;
27223;SDS011;14965;50.660;13.226;2022-07-29T12:35:42;8.07;;;3.30;;
27223;SDS011;14965;50.660;13.226;2022-07-29T12:38:11;9.45;;;2.90;;
27223;SDS011;14965;50.660;13.226;2022-07-29T12:40:38;8.07;;;3.22;;
27223;SDS011;14965;50.660;13.226;2022-07-29T12:43:05;6.07;;;3.20;;
27223;SDS011;14965;50.660;13.226;2022-07-29T12:45:38;6.80;;;2.97;;
27223;SDS011;14965;50.660;13.226;2022-07-29T12:48:06;11.50;;;2.70;;
27223;SDS011;14965;50.660;13.226;2022-07-29T12:50:33;5.63;;;2.90;;
27223;SDS011;14965;50.660;13.226;2022-07-29T12:53:09;5.05;;;2.60;;
27223;SDS011;14965;50.660;13.226;2022-07-29T12:55:37;5.90;;;3.10;;
27223;SDS011;14965;50.660;13.226;2022-07-29T12:58:09;10.63;;;3.50;;
27223;SDS011;14965;50.660;13.226;2022-07-29T13:00:35;8.13;;;3.08;;
27223;SDS011;14965;50.660;13.226;2022-07-29T13:03:02;7.82;;;3.00;;
27223;SDS011;14965;50.660;13.226;2022-07-29T13:08:12;3.97;;;3.10;;
27223;SDS011;14965;50.660;13.226;2022-07-29T13:10:40;5.20;;;3.00;;
27223;SDS011;14965;50.660;13.226;2022-07-29T13:13:07;8.40;;;3.55;;
27223;SDS011;14965;50.660;13.226;2022-07-29T13:15:35;8.63;;;3.22;;
27223;SDS011;14965;50.660;13.226;2022-07-29T13:18:05;13.13;;;3.33;;
27223;SDS011;14965;50.660;13.226;2022-07-29T13:23:17;5.40;;;3.10;;
27223;SDS011;14965;50.660;13.226;2022-07-29T13:25:43;9.85;;;3.20;;
27223;SDS011;14965;50.660;13.226;2022-07-29T13:28:09;6.20;;;2.97;;
27223;SDS011;14965;50.660;13.226;2022-07-29T13:30:35;11.00;;;3.20;;
27223;SDS011;14965;50.660;13.226;2022-07-29T13:33:00;10.73;;;3.47;;
27223;SDS011;14965;50.660;13.226;2022-07-29T13:35:27;7.40;;;3.33;;
27223;SDS011;14965;50.660;13.226;2022-07-29T13:37:53;4.43;;;3.03;;
27223;SDS011;14965;50.660;13.226;2022-07-29T13:40:19;9.02;;;3.47;;
27223;SDS011;14965;50.660;13.226;2022-07-29T13:42:45;7.05;;;3.28;;
27223;SDS011;14965;50.660;13.226;2022-07-29T13:45:11;9.07;;;3.35;;
27223;SDS011;14965;50.660;13.226;2022-07-29T13:47:37;8.23;;;3.03;;
27223;SDS011;14965;50.660;13.226;2022-07-29T13:50:04;5.45;;;2.80;;
27223;SDS011;14965;50.660;13.226;2022-07-29T13:52:34;7.07;;;3.22;;
27223;SDS011;14965;50.660;13.226;2022-07-29T13:55:01;7.93;;;3.30;;
27223;SDS011;14965;50.660;13.226;2022-07-29T13:57:28;11.27;;;2.90;;
27223;SDS011;14965;50.660;13.226;2022-07-29T13:59:54;11.35;;;3.15;;
27223;SDS011;14965;50.660;13.226;2022-07-29T14:02:20;9.02;;;3.05;;
27223;SDS011;14965;50.660;13.226;2022-07-29T14:04:46;8.43;;;3.47;;
27223;SDS011;14965;50.660;13.226;2022-07-29T14:07:12;7.32;;;3.35;;
27223;SDS011;14965;50.660;13.226;2022-07-29T14:09:39;8.65;;;3.03;;
27223;SDS011;14965;50.660;13.226;2022-07-29T14:12:05;8.70;;;3.10;;
27223;SDS011;14965;50.660;13.226;2022-07-29T14:14:32;5.88;;;2.92;;
27223;SDS011;14965;50.660;13.226;2022-07-29T14:16:58;4.82;;;2.65;;
27223;SDS011;14965;50.660;13.226;2022-07-29T14:19:24;5.65;;;2.75;;
27223;SDS011;14965;50.660;13.226;2022-07-29T14:21:50;7.15;;;2.75;;
27223;SDS011;14965;50.660;13.226;2022-07-29T14:24:16;4.82;;;2.85;;
27223;SDS011;14965;50.660;13.226;2022-07-29T14:26:43;5.30;;;2.97;;
27223;SDS011;14965;50.660;13.226;2022-07-29T14:29:09;4.55;;;2.90;;
27223;SDS011;14965;50.660;13.226;2022-07-29T14:31:35;5.97;;;2.58;;
27223;SDS011;14965;50.660;13.226;2022-07-29T14:34:00;7.35;;;2.83;;
27223;SDS011;14965;50.660;13.226;2022-07-29T14:36:26;5.72;;;2.88;;
27223;SDS011;14965;50.660;13.226;2022-07-29T14:38:52;8.40;;;2.70;;
27223;SDS011;14965;50.660;13.226;2022-07-29T14:41:18;3.92;;;2.75;;
27223;SDS011;14965;50.660;13.226;2022-07-29T14:43:45;3.17;;;2.53;;
27223;SDS011;14965;50.660;13.226;2022-07-29T14:46:11;7.57;;;2.90;;
27223;SDS011;14965;50.660;13.226;2022-07-29T14:48:37;6.13;;;2.80;;
27223;SDS011;14965;50.660;13.226;2022-07-29T14:51:03;3.80;;;2.67;;
27223;SDS011;14965;50.660;13.226;2022-07-29T14:53:28;10.20;;;3.05;;
27223;SDS011;14965;50.660;13.226;2022-07-29T14:55:54;5.75;;;3.00;;
27223;SDS011;14965;50.660;13.226;2022-07-29T14:58:20;5.72;;;3.10;;
27223;SDS011;14965;50.660;13.226;2022-07-29T15:00:47;5.72;;;2.92;;
27223;SDS011;14965;50.660;13.226;2022-07-29T15:03:13;7.50;;;2.92;;
27223;SDS011;14965;50.660;13.226;2022-07-29T15:05:39;5.18;;;3.10;;
27223;SDS011;14965;50.660;13.226;2022-07-29T15:08:05;6.78;;;3.30;;
27223;SDS011;14965;50.660;13.226;2022-07-29T15:10:31;9.77;;;3.20;;